createdAt,value
2023-02-26T00:01:46.795Z,96037.31
2023-02-26T00:04:14.822Z,96038.84
2023-02-26T00:06:53.104Z,96050.72
2023-02-26T00:09:23.206Z,96047.88
2023-02-26T00:11:51.812Z,96055.69
2023-02-26T00:14:21.219Z,96051.13
2023-02-26T00:16:56.735Z,96050.72
2023-02-26T00:19:25.142Z,96053.72
2023-02-26T00:21:55.490Z,96049.00
2023-02-26T00:24:23.668Z,96047.84
2023-02-26T00:26:51.678Z,96054.41
2023-02-26T00:29:20.611Z,96050.44
2023-02-26T00:31:49.573Z,96053.63
2023-02-26T00:34:18.328Z,96061.97
2023-02-26T00:36:53.658Z,96054.50
2023-02-26T00:39:39.849Z,96061.53
2023-02-26T00:42:09.252Z,96064.31
2023-02-26T00:44:38.257Z,96057.56
2023-02-26T00:47:15.828Z,96060.97
2023-02-26T00:50:03.382Z,96059.97
2023-02-26T00:52:42.777Z,96066.63
2023-02-26T00:55:12.161Z,96059.56
2023-02-26T00:57:40.209Z,96060.38
2023-02-26T01:00:10.574Z,96061.16
2023-02-26T01:02:40.711Z,96057.13
2023-02-26T01:05:11.485Z,96057.13
2023-02-26T01:07:45.618Z,96059.19
2023-02-26T01:10:16.231Z,96058.47
2023-02-26T01:12:45.161Z,96057.13
2023-02-26T01:15:14.868Z,96061.00
2023-02-26T01:17:49.878Z,96060.25
2023-02-26T01:20:21.692Z,96059.56
2023-02-26T01:22:55.850Z,96062.97
2023-02-26T01:25:31.297Z,96048.88
2023-02-26T01:27:59.958Z,96051.13
2023-02-26T01:30:28.778Z,96049.03
2023-02-26T01:33:04.582Z,96052.47
2023-02-26T01:35:44.647Z,96054.97
2023-02-26T01:38:27.381Z,96054.06
2023-02-26T01:41:23.330Z,96055.88
2023-02-26T01:44:01.418Z,96051.75
2023-02-26T01:46:37.670Z,96056.41
2023-02-26T01:49:13.244Z,96055.06
2023-02-26T01:51:51.608Z,96060.91
2023-02-26T01:54:23.863Z,96060.34
2023-02-26T01:57:01.201Z,96058.00
2023-02-26T01:59:29.322Z,96067.88
2023-02-26T02:02:00.544Z,96061.84
2023-02-26T02:04:28.897Z,96053.53
2023-02-26T02:06:57.241Z,96054.59
2023-02-26T02:09:25.401Z,96058.53
2023-02-26T02:12:25.457Z,96053.53
2023-02-26T02:15:06.344Z,96052.44
2023-02-26T02:17:46.020Z,96054.16
2023-02-26T02:20:53.330Z,96053.69
2023-02-26T02:23:28.457Z,96056.19
2023-02-26T02:26:19.331Z,96060.63
2023-02-26T02:29:16.870Z,96063.06
2023-02-26T02:31:53.565Z,96064.50
2023-02-26T02:34:27.925Z,96066.78
2023-02-26T02:37:00.940Z,96067.94
2023-02-26T02:39:33.026Z,96078.28
2023-02-26T02:42:09.040Z,96078.94
2023-02-26T02:44:42.655Z,96076.94
2023-02-26T02:47:14.417Z,96081.34
2023-02-26T02:49:52.465Z,96087.81
2023-02-26T02:52:27.910Z,96080.94
2023-02-26T02:54:59.855Z,96088.56
2023-02-26T02:57:34.709Z,96087.94
2023-02-26T03:00:09.083Z,96089.63
2023-02-26T03:02:45.817Z,96093.22
2023-02-26T03:05:14.711Z,96092.31
2023-02-26T03:07:49.421Z,96093.44
2023-02-26T03:10:18.960Z,96094.13
2023-02-26T03:12:47.097Z,96107.44
2023-02-26T03:15:19.458Z,96101.84
2023-02-26T03:18:01.566Z,96110.34
2023-02-26T03:20:35.913Z,96106.31
2023-02-26T03:23:19.911Z,96101.78
2023-02-26T03:25:52.871Z,96097.75
2023-02-26T03:28:29.467Z,96099.72
2023-02-26T03:31:04.100Z,96106.13
2023-02-26T03:33:43.347Z,96102.03
2023-02-26T03:36:19.356Z,96100.91
2023-02-26T03:39:05.047Z,96104.84
2023-02-26T03:41:39.220Z,96112.69
2023-02-26T03:44:15.338Z,96118.16
2023-02-26T03:46:49.691Z,96119.16
2023-02-26T03:49:27.738Z,96122.66
2023-02-26T03:51:58.029Z,96121.25
2023-02-26T03:54:58.641Z,96120.97
2023-02-26T03:57:47.716Z,96124.59
2023-02-26T04:00:27.068Z,96126.53
2023-02-26T04:03:04.143Z,96135.16
2023-02-26T04:05:39.246Z,96125.44
2023-02-26T04:08:08.244Z,96126.16
2023-02-26T04:10:42.466Z,96119.53
2023-02-26T04:13:11.065Z,96126.38
2023-02-26T04:16:07.413Z,96141.25
2023-02-26T04:18:35.998Z,96136.88
2023-02-26T04:21:06.611Z,96132.63
2023-02-26T04:23:39.843Z,96136.00
2023-02-26T04:26:09.873Z,96132.34
2023-02-26T04:28:40.902Z,96141.25
2023-02-26T04:31:12.399Z,96136.72
2023-02-26T04:33:41.427Z,96139.19
2023-02-26T04:36:11.496Z,96139.53
2023-02-26T04:38:40.676Z,96142.50
2023-02-26T04:41:09.265Z,96141.72
2023-02-26T04:43:37.715Z,96149.16
2023-02-26T04:46:21.963Z,96150.66
2023-02-26T04:48:50.073Z,96153.25
2023-02-26T04:51:19.562Z,96159.28
2023-02-26T04:53:47.813Z,96157.69
2023-02-26T04:56:16.386Z,96155.31
2023-02-26T04:58:44.625Z,96163.13
2023-02-26T05:01:18.092Z,96165.19
2023-02-26T05:03:46.222Z,96164.56
2023-02-26T05:06:14.317Z,96165.38
2023-02-26T05:08:44.228Z,96170.56
2023-02-26T05:11:13.240Z,96168.16
2023-02-26T05:13:41.326Z,96170.38
2023-02-26T05:16:09.962Z,96173.50
2023-02-26T05:18:38.391Z,96169.59
2023-02-26T05:21:07.013Z,96172.78
2023-02-26T05:23:35.643Z,96173.94
2023-02-26T05:26:05.438Z,96168.88
2023-02-26T05:28:38.477Z,96172.81
2023-02-26T05:31:07.416Z,96171.03
2023-02-26T05:33:36.699Z,96171.03
2023-02-26T05:36:07.017Z,96177.81
2023-02-26T05:38:35.415Z,96180.47
2023-02-26T05:41:05.750Z,96184.66
2023-02-26T05:43:34.551Z,96189.50
2023-02-26T05:46:02.682Z,96189.03
2023-02-26T05:48:31.013Z,96187.38
2023-02-26T05:50:59.130Z,96198.88
2023-02-26T05:53:27.241Z,96190.00
2023-02-26T05:55:55.375Z,96196.97
2023-02-26T05:58:24.994Z,96198.25
2023-02-26T06:00:53.109Z,96205.88
2023-02-26T06:03:21.219Z,96207.19
2023-02-26T06:05:49.636Z,96210.13
2023-02-26T06:08:17.720Z,96212.09
2023-02-26T06:10:45.849Z,96222.63
2023-02-26T06:13:13.924Z,96228.31
2023-02-26T06:15:43.319Z,96225.69
2023-02-26T06:18:11.407Z,96230.72
2023-02-26T06:20:39.488Z,96234.63
2023-02-26T06:23:07.740Z,96241.59
2023-02-26T06:25:35.810Z,96244.72
2023-02-26T06:28:03.956Z,96253.44
2023-02-26T06:30:32.106Z,96253.13
2023-02-26T06:33:01.640Z,96261.56
2023-02-26T06:35:30.110Z,96259.78
2023-02-26T06:37:58.328Z,96265.78
2023-02-26T06:40:26.501Z,96269.34
2023-02-26T06:42:54.573Z,96274.19
2023-02-26T06:45:22.721Z,96278.91
2023-02-26T06:47:50.758Z,96280.84
2023-02-26T06:50:20.565Z,96292.03
2023-02-26T06:52:48.600Z,96291.25
2023-02-26T06:55:16.757Z,96297.88
2023-02-26T06:57:45.410Z,96308.09
2023-02-26T07:00:15.021Z,96310.50
2023-02-26T07:02:43.142Z,96307.59
2023-02-26T07:05:12.214Z,96313.94
2023-02-26T07:07:41.827Z,96318.66
2023-02-26T07:10:12.752Z,96306.63
2023-02-26T07:12:40.938Z,96312.63
2023-02-26T07:15:10.067Z,96326.06
2023-02-26T07:17:38.097Z,96323.00
2023-02-26T07:20:10.011Z,96324.63
2023-02-26T07:22:38.742Z,96330.63
2023-02-26T07:25:09.442Z,96328.19
2023-02-26T07:27:38.002Z,96320.69
2023-02-26T07:30:08.530Z,96338.38
2023-02-26T07:32:37.081Z,96333.03
2023-02-26T07:35:08.498Z,96329.31
2023-02-26T07:37:36.557Z,96330.16
2023-02-26T07:40:05.344Z,96337.75
2023-02-26T07:42:34.752Z,96342.31
2023-02-26T07:45:03.367Z,96345.53
2023-02-26T07:47:31.491Z,96348.44
2023-02-26T07:49:59.536Z,96342.44
2023-02-26T07:52:28.673Z,96347.78
2023-02-26T07:54:56.744Z,96343.88
2023-02-26T07:57:24.826Z,96348.47
2023-02-26T07:59:54.251Z,96343.59
2023-02-26T08:02:23.356Z,96356.09
2023-02-26T08:04:51.783Z,96355.91
2023-02-26T08:07:20.366Z,96352.03
2023-02-26T08:09:48.395Z,96351.69
2023-02-26T08:12:16.732Z,96348.44
2023-02-26T08:14:44.765Z,96349.09
2023-02-26T08:17:14.126Z,96356.06
2023-02-26T08:19:42.269Z,96353.91
2023-02-26T08:22:10.342Z,96357.50
2023-02-26T08:24:39.275Z,96352.31
2023-02-26T08:27:07.338Z,96357.38
2023-02-26T08:29:35.447Z,96367.22
2023-02-26T08:32:03.569Z,96355.53
2023-02-26T08:34:32.997Z,96369.84
2023-02-26T08:37:01.000Z,96364.31
2023-02-26T08:39:32.905Z,96373.91
2023-02-26T08:42:00.948Z,96376.00
2023-02-26T08:44:28.999Z,96374.72
2023-02-26T08:46:57.446Z,96377.44
2023-02-26T08:49:25.504Z,96380.91
2023-02-26T08:51:54.880Z,96378.47
2023-02-26T08:54:22.904Z,96378.75
2023-02-26T08:56:50.927Z,96380.38
2023-02-26T08:59:19.196Z,96376.13
2023-02-26T09:01:47.268Z,96374.66
2023-02-26T09:04:15.714Z,96386.47
2023-02-26T09:06:44.023Z,96377.75
2023-02-26T09:09:13.675Z,96381.13
2023-02-26T09:11:41.708Z,96392.50
2023-02-26T09:14:09.918Z,96399.66
2023-02-26T09:16:38.769Z,96403.25
2023-02-26T09:19:08.919Z,96409.88
2023-02-26T09:21:37.399Z,96406.00
2023-02-26T09:24:05.795Z,96406.16
2023-02-26T09:26:35.198Z,96414.16
2023-02-26T09:29:03.384Z,96411.22
2023-02-26T09:31:31.632Z,96420.66
2023-02-26T09:33:59.911Z,96408.16
2023-02-26T09:36:28.459Z,96415.78
2023-02-26T09:38:56.623Z,96418.56
2023-02-26T09:41:30.557Z,96431.53
2023-02-26T09:44:16.458Z,96424.56
2023-02-26T09:46:54.850Z,96425.38
2023-02-26T09:49:35.057Z,96440.78
2023-02-26T09:52:13.721Z,96433.97
2023-02-26T09:54:48.382Z,96435.44
2023-02-26T09:57:28.792Z,96439.63
2023-02-26T10:00:00.248Z,96440.78
2023-02-26T10:02:39.349Z,96441.25
2023-02-26T10:05:20.106Z,96451.97
2023-02-26T10:07:57.965Z,96452.16
2023-02-26T10:10:39.881Z,96448.72
2023-02-26T10:13:23.620Z,96449.53
2023-02-26T10:15:58.420Z,96448.41
2023-02-26T10:18:32.204Z,96452.00
2023-02-26T10:21:08.590Z,96456.22
2023-02-26T10:23:44.081Z,96462.22
2023-02-26T10:26:20.186Z,96461.88
2023-02-26T10:28:59.757Z,96460.41
2023-02-26T10:31:38.677Z,96461.72
2023-02-26T10:34:22.572Z,96462.38
2023-02-26T10:36:57.279Z,96458.13
2023-02-26T10:39:33.536Z,96467.06
2023-02-26T10:42:07.069Z,96467.56
2023-02-26T10:44:44.169Z,96477.00
2023-02-26T10:47:27.040Z,96476.66
2023-02-26T10:50:01.382Z,96479.75
2023-02-26T10:52:33.762Z,96478.44
2023-02-26T10:55:22.925Z,96480.56
2023-02-26T10:58:01.246Z,96477.00
2023-02-26T11:00:29.634Z,96472.09
2023-02-26T11:02:59.590Z,96482.63
2023-02-26T11:05:31.203Z,96483.31
2023-02-26T11:08:03.148Z,96485.44
2023-02-26T11:10:43.227Z,96479.88
2023-02-26T11:13:12.916Z,96483.13
2023-02-26T11:15:41.517Z,96478.22
2023-02-26T11:18:17.685Z,96483.72
2023-02-26T11:20:48.378Z,96482.25
2023-02-26T11:23:22.218Z,96484.22
2023-02-26T11:25:59.899Z,96483.72
2023-02-26T11:28:35.943Z,96473.16
2023-02-26T11:31:08.867Z,96474.97
2023-02-26T11:33:41.327Z,96476.91
2023-02-26T11:36:13.484Z,96472.50
2023-02-26T11:38:45.771Z,96473.28
2023-02-26T11:41:15.027Z,96465.00
2023-02-26T11:43:47.048Z,96461.59
2023-02-26T11:46:15.534Z,96466.31
2023-02-26T11:48:48.861Z,96469.75
2023-02-26T11:51:24.016Z,96478.19
2023-02-26T11:53:55.504Z,96476.75
2023-02-26T11:56:31.206Z,96476.25
2023-02-26T11:59:08.581Z,96474.97
2023-02-26T12:01:37.905Z,96475.69
2023-02-26T12:04:12.302Z,96475.34
2023-02-26T12:06:40.772Z,96479.91
2023-02-26T12:09:13.410Z,96485.63
2023-02-26T12:11:58.516Z,96481.75
2023-02-26T12:15:02.846Z,96489.63
2023-02-26T12:17:53.787Z,96491.84
2023-02-26T12:20:32.882Z,96493.50
2023-02-26T12:23:35.976Z,96481.69
2023-02-26T12:26:23.209Z,96498.22
2023-02-26T12:29:12.166Z,96491.25
2023-02-26T12:32:06.985Z,96485.88
2023-02-26T12:35:06.734Z,96488.97
2023-02-26T12:37:52.586Z,96487.31
2023-02-26T12:40:51.516Z,96495.44
2023-02-26T12:43:33.595Z,96483.38
2023-02-26T12:46:17.759Z,96486.00
2023-02-26T12:49:14.477Z,96492.78
2023-02-26T12:52:16.494Z,96498.00
2023-02-26T12:55:04.323Z,96492.59
2023-02-26T12:57:57.170Z,96497.00
2023-02-26T13:00:45.578Z,96499.59
2023-02-26T13:03:58.503Z,96490.28
2023-02-26T13:06:59.573Z,96507.28
2023-02-26T13:09:38.686Z,96504.34
2023-02-26T13:12:31.795Z,96500.47
2023-02-26T13:15:19.994Z,96510.06
2023-02-26T13:17:58.254Z,96515.41
2023-02-26T13:20:29.268Z,96510.22
2023-02-26T13:23:02.886Z,96512.63
2023-02-26T13:25:39.494Z,96510.66
2023-02-26T13:28:20.232Z,96522.34
2023-02-26T13:30:54.451Z,96520.09
2023-02-26T13:33:28.962Z,96510.00
2023-02-26T13:35:58.364Z,96512.19
2023-02-26T13:38:45.011Z,96514.88
2023-02-26T13:41:17.901Z,96521.53
2023-02-26T13:44:08.084Z,96519.91
2023-02-26T13:46:52.658Z,96524.63
2023-02-26T13:49:31.298Z,96518.41
2023-02-26T13:51:59.446Z,96509.16
2023-02-26T13:54:42.531Z,96515.16
2023-02-26T13:57:38.441Z,96519.19
2023-02-26T14:00:28.522Z,96523.22
2023-02-26T14:02:58.317Z,96520.13
2023-02-26T14:06:09.680Z,96522.06
2023-02-26T14:08:47.174Z,96530.41
2023-02-26T14:11:47.664Z,96532.75
2023-02-26T14:14:37.539Z,96535.69
2023-02-26T14:17:38.857Z,96540.88
2023-02-26T14:20:26.693Z,96541.66
2023-02-26T14:23:19.596Z,96540.63
2023-02-26T14:25:50.353Z,96536.94
2023-02-26T14:29:08.074Z,96541.28
2023-02-26T14:32:10.070Z,96537.25
2023-02-26T14:34:51.221Z,96531.28
2023-02-26T14:37:24.331Z,96538.72
2023-02-26T14:39:58.596Z,96536.84
2023-02-26T14:42:36.733Z,96544.13
2023-02-26T14:45:28.399Z,96533.25
2023-02-26T14:47:57.737Z,96536.72
2023-02-26T14:50:35.732Z,96532.34
2023-02-26T14:53:46.758Z,96533.38
2023-02-26T14:56:26.554Z,96541.34
2023-02-26T14:59:12.659Z,96544.56
2023-02-26T15:01:55.567Z,96545.66
2023-02-26T15:05:10.204Z,96548.22
2023-02-26T15:07:59.996Z,96547.84
2023-02-26T15:10:45.750Z,96551.19
2023-02-26T15:13:47.297Z,96556.53
2023-02-26T15:16:29.283Z,96554.09
2023-02-26T15:19:15.607Z,96563.09
2023-02-26T15:21:59.781Z,96565.34
2023-02-26T15:24:31.909Z,96561.25
2023-02-26T15:27:08.857Z,96563.50
2023-02-26T15:29:41.185Z,96571.00
2023-02-26T15:32:22.870Z,96569.94
2023-02-26T15:34:59.888Z,96582.00
2023-02-26T15:37:33.902Z,96579.09
2023-02-26T15:40:06.735Z,96573.13
2023-02-26T15:42:40.758Z,96583.41
2023-02-26T15:45:20.124Z,96580.63
2023-02-26T15:47:53.169Z,96584.66
2023-02-26T15:50:26.107Z,96577.31
2023-02-26T15:53:04.116Z,96577.28
2023-02-26T15:55:38.315Z,96583.13
2023-02-26T15:58:08.857Z,96577.28
2023-02-26T16:00:39.341Z,96582.16
2023-02-26T16:03:07.454Z,96580.06
2023-02-26T16:05:36.706Z,96589.66
2023-02-26T16:08:04.816Z,96597.34
2023-02-26T16:10:41.495Z,96579.19
2023-02-26T16:13:16.606Z,96599.16
2023-02-26T16:15:45.695Z,96595.56
2023-02-26T16:18:23.544Z,96600.94
2023-02-26T16:20:57.957Z,96604.66
2023-02-26T16:23:33.271Z,96610.88
2023-02-26T16:26:06.152Z,96619.31
2023-02-26T16:28:43.930Z,96631.16
2023-02-26T16:31:21.120Z,96628.91
2023-02-26T16:33:58.638Z,96629.41
2023-02-26T16:36:31.814Z,96633.16
2023-02-26T16:39:18.236Z,96637.09
2023-02-26T16:42:01.587Z,96645.56
2023-02-26T16:44:51.544Z,96662.81
2023-02-26T16:47:21.009Z,96662.34
2023-02-26T16:49:49.895Z,96676.19
2023-02-26T16:52:23.486Z,96672.91
2023-02-26T16:55:03.905Z,96682.50
2023-02-26T16:57:39.822Z,96688.19
2023-02-26T17:00:17.716Z,96689.19
2023-02-26T17:02:49.703Z,96692.09
2023-02-26T17:05:25.188Z,96702.97
2023-02-26T17:08:01.828Z,96698.44
2023-02-26T17:10:35.568Z,96698.91
2023-02-26T17:13:16.299Z,96707.69
2023-02-26T17:15:47.388Z,96701.34
2023-02-26T17:18:15.812Z,96710.94
2023-02-26T17:20:45.408Z,96715.50
2023-02-26T17:23:18.080Z,96716.81
2023-02-26T17:25:51.539Z,96717.63
2023-02-26T17:28:25.665Z,96723.97
2023-02-26T17:30:54.979Z,96725.25
2023-02-26T17:33:23.809Z,96727.69
2023-02-26T17:35:52.860Z,96730.47
2023-02-26T17:38:20.974Z,96727.38
2023-02-26T17:40:51.790Z,96736.50
2023-02-26T17:43:21.158Z,96743.84
2023-02-26T17:45:49.538Z,96745.44
2023-02-26T17:48:19.032Z,96747.91
2023-02-26T17:50:52.270Z,96750.97
2023-02-26T17:53:27.319Z,96750.00
2023-02-26T17:55:56.503Z,96750.34
2023-02-26T17:58:29.981Z,96760.41
2023-02-26T18:00:58.839Z,96759.25
2023-02-26T18:03:27.418Z,96763.50
2023-02-26T18:05:57.130Z,96769.34
2023-02-26T18:08:28.716Z,96759.91
2023-02-26T18:10:57.959Z,96754.41
2023-02-26T18:13:28.846Z,96762.19
2023-02-26T18:15:58.887Z,96759.41
2023-02-26T18:18:27.831Z,96770.19
2023-02-26T18:20:57.245Z,96760.53
2023-02-26T18:23:26.018Z,96762.84
2023-02-26T18:25:56.374Z,96768.72
2023-02-26T18:28:29.056Z,96759.59
2023-02-26T18:30:58.704Z,96760.06
2023-02-26T18:33:27.455Z,96762.19
2023-02-26T18:35:58.304Z,96768.34
2023-02-26T18:38:28.907Z,96754.50
2023-02-26T18:40:58.159Z,96765.56
2023-02-26T18:43:27.890Z,96765.25
2023-02-26T18:45:57.170Z,96771.28
2023-02-26T18:48:25.270Z,96770.94
2023-02-26T18:50:54.389Z,96773.34
2023-02-26T18:53:23.568Z,96780.00
2023-02-26T18:55:53.621Z,96776.78
2023-02-26T18:58:22.896Z,96782.59
2023-02-26T19:00:52.740Z,96785.56
2023-02-26T19:03:21.117Z,96780.69
2023-02-26T19:05:58.613Z,96779.84
2023-02-26T19:08:27.159Z,96783.91
2023-02-26T19:10:55.380Z,96782.44
2023-02-26T19:13:24.010Z,96789.91
2023-02-26T19:15:53.638Z,96786.81
2023-02-26T19:18:22.005Z,96793.81
2023-02-26T19:20:50.310Z,96787.31
2023-02-26T19:23:18.564Z,96786.31
2023-02-26T19:25:46.945Z,96787.00
2023-02-26T19:28:15.086Z,96793.50
2023-02-26T19:30:43.246Z,96793.63
2023-02-26T19:33:13.167Z,96800.44
2023-02-26T19:35:41.399Z,96792.84
2023-02-26T19:38:10.917Z,96803.72
2023-02-26T19:40:44.981Z,96812.66
2023-02-26T19:43:13.885Z,96813.66
2023-02-26T19:45:42.953Z,96813.31
2023-02-26T19:48:12.844Z,96818.13
2023-02-26T19:50:41.662Z,96822.69
2023-02-26T19:53:13.044Z,96828.16
2023-02-26T19:55:41.076Z,96829.44
2023-02-26T19:58:09.328Z,96840.50
2023-02-26T20:00:37.417Z,96831.59
2023-02-26T20:03:05.459Z,96839.38
2023-02-26T20:05:37.094Z,96848.63
2023-02-26T20:08:05.961Z,96848.00
2023-02-26T20:10:34.041Z,96855.47
2023-02-26T20:13:02.066Z,96860.19
2023-02-26T20:15:30.382Z,96853.81
2023-02-26T20:17:58.350Z,96863.19
2023-02-26T20:20:26.552Z,96864.66
2023-02-26T20:22:55.882Z,96864.25
2023-02-26T20:25:24.318Z,96863.94
2023-02-26T20:27:52.924Z,96872.16
2023-02-26T20:30:21.252Z,96873.44
2023-02-26T20:32:49.669Z,96878.38
2023-02-26T20:35:17.931Z,96870.13
2023-02-26T20:37:46.547Z,96880.28
2023-02-26T20:40:16.283Z,96878.19
2023-02-26T20:42:44.371Z,96884.19
2023-02-26T20:45:12.847Z,96878.09
2023-02-26T20:47:40.930Z,96882.56
2023-02-26T20:50:11.068Z,96880.59
2023-02-26T20:52:39.494Z,96883.72
2023-02-26T20:55:08.911Z,96878.97
2023-02-26T20:57:38.388Z,96887.56
2023-02-26T21:00:11.084Z,96890.09
2023-02-26T21:02:39.621Z,96896.56
2023-02-26T21:05:09.525Z,96897.78
2023-02-26T21:07:39.269Z,96897.13
2023-02-26T21:10:10.029Z,96898.28
2023-02-26T21:12:39.613Z,96906.50
2023-02-26T21:15:10.304Z,96899.19
2023-02-26T21:17:39.526Z,96906.47
2023-02-26T21:20:11.941Z,96902.13
2023-02-26T21:22:40.786Z,96905.00
2023-02-26T21:25:09.997Z,96904.88
2023-02-26T21:27:39.720Z,96899.88
2023-02-26T21:30:11.946Z,96897.47
2023-02-26T21:32:40.643Z,96902.28
2023-02-26T21:35:12.158Z,96900.56
2023-02-26T21:37:40.410Z,96901.03
2023-02-26T21:40:10.709Z,96902.44
2023-02-26T21:42:40.160Z,96900.22
2023-02-26T21:45:10.077Z,96899.63
2023-02-26T21:47:38.445Z,96899.03
2023-02-26T21:50:07.721Z,96904.50
2023-02-26T21:52:35.923Z,96904.31
2023-02-26T21:55:03.980Z,96902.34
2023-02-26T21:57:32.421Z,96904.38
2023-02-26T22:00:01.982Z,96907.19
2023-02-26T22:02:39.974Z,96907.19
2023-02-26T22:05:09.848Z,96904.50
2023-02-26T22:07:38.260Z,96905.28
2023-02-26T22:10:08.280Z,96908.16
2023-02-26T22:12:36.549Z,96910.00
2023-02-26T22:15:07.140Z,96904.31
2023-02-26T22:17:35.190Z,96901.56
2023-02-26T22:20:06.281Z,96910.53
2023-02-26T22:22:34.374Z,96909.19
2023-02-26T22:25:02.469Z,96897.41
2023-02-26T22:27:30.648Z,96894.88
2023-02-26T22:29:58.828Z,96891.97
2023-02-26T22:32:28.283Z,96900.94
2023-02-26T22:34:56.577Z,96900.28
2023-02-26T22:37:24.630Z,96908.44
2023-02-26T22:39:52.668Z,96908.22
2023-02-26T22:42:20.858Z,96898.69
2023-02-26T22:44:49.005Z,96903.78
2023-02-26T22:47:17.209Z,96906.38
2023-02-26T22:49:46.726Z,96901.56
2023-02-26T22:52:14.952Z,96905.72
2023-02-26T22:54:45.526Z,96900.88
2023-02-26T22:57:14.029Z,96910.59
2023-02-26T22:59:42.129Z,96908.31
2023-02-26T23:02:10.272Z,96909.28
2023-02-26T23:04:38.529Z,96903.25
2023-02-26T23:07:07.973Z,96909.84
2023-02-26T23:09:37.332Z,96915.50
2023-02-26T23:12:06.330Z,96910.44
2023-02-26T23:14:34.840Z,96921.13
2023-02-26T23:17:04.061Z,96915.56
2023-02-26T23:19:32.288Z,96916.84
2023-02-26T23:22:00.348Z,96924.59
2023-02-26T23:24:29.749Z,96926.13
2023-02-26T23:26:57.861Z,96913.06
2023-02-26T23:29:25.913Z,96925.06
2023-02-26T23:31:54.234Z,96920.31
2023-02-26T23:34:22.429Z,96917.81
2023-02-26T23:36:50.821Z,96923.00
2023-02-26T23:39:18.840Z,96918.19
2023-02-26T23:41:48.346Z,96912.31
2023-02-26T23:44:16.327Z,96912.94
2023-02-26T23:46:44.380Z,96919.16
2023-02-26T23:49:12.448Z,96918.91
2023-02-26T23:51:40.548Z,96922.88
2023-02-26T23:54:08.571Z,96914.91
2023-02-26T23:56:36.806Z,96926.97
2023-02-26T23:59:06.288Z,96921.53
